Time;durP1;ratioP1;P1;durP2;ratioP2;P2;SDS_P1;SDS_P2;PMS_P1;PMS_P2;Temp;Humidity;BMP_temperature;BMP_pressure;BME280_temperature;BME280_humidity;BME280_pressure;Samples;Min_cycle;Max_cycle;Signal;HPM_P1;HPM_P2
2022/02/11 00:07:09;;;;;;;4.87;1.97;;;6.10;99.90;;;;;;5030095;28;20049;-89
2022/02/11 00:09:35;;;;;;;4.13;1.55;;;6.20;99.90;;;;;;5039698;28;20027;-89
2022/02/11 00:12:01;;;;;;;4.90;1.63;;;6.20;99.90;;;;;;5022741;28;20033;-88
2022/02/11 00:14:30;;;;;;;3.37;1.43;;;6.10;99.90;;;;;;5014265;28;20040;-88
2022/02/11 00:16:56;;;;;;;2.90;1.30;;;6.10;99.90;;;;;;5022822;28;20025;-88
2022/02/11 00:19:21;;;;;;;3.43;1.47;;;6.20;99.90;;;;;;5008312;28;20045;-88
2022/02/11 00:21:47;;;;;;;4.10;1.70;;;6.10;99.90;;;;;;5021266;28;20026;-88
2022/02/11 00:24:14;;;;;;;3.97;1.80;;;6.20;99.90;;;;;;5013694;28;20092;-89
2022/02/11 00:26:50;;;;;;;4.30;1.30;;;6.20;99.90;;;;;;5020591;28;20022;-88
2022/02/11 00:34:40;;;;;;;3.60;1.27;;;6.10;99.90;;;;;;5033396;28;20049;-89
2022/02/11 00:37:12;;;;;;;3.67;1.57;;;6.10;99.90;;;;;;5019388;28;20079;-89
2022/02/11 00:40:06;;;;;;;2.80;1.23;;;6.10;99.90;;;;;;5023826;28;20064;-88
2022/02/11 01:03:59;;;;;;;6.47;1.97;;;6.20;99.90;;;;;;5040105;28;20032;-88
2022/02/11 01:06:26;;;;;;;4.03;1.40;;;6.10;99.90;;;;;;5020860;28;20077;-89
2022/02/11 01:08:52;;;;;;;4.10;1.87;;;6.20;99.90;;;;;;5025706;28;20030;-88
2022/02/11 01:11:25;;;;;;;3.87;1.50;;;6.20;99.90;;;;;;5024915;28;20056;-89
2022/02/11 01:13:51;;;;;;;3.83;1.67;;;6.10;99.90;;;;;;5032395;28;20204;-89
2022/02/11 01:16:23;;;;;;;4.17;1.80;;;6.00;99.90;;;;;;5037396;28;20528;-89
2022/02/11 01:18:58;;;;;;;3.83;2.00;;;6.00;99.90;;;;;;5031371;28;20033;-89
2022/02/11 01:21:33;;;;;;;5.33;2.10;;;6.10;99.90;;;;;;5021461;28;20032;-89
2022/02/11 01:30:09;;;;;;;5.50;2.20;;;5.90;99.90;;;;;;5030669;28;20111;-89
2022/02/11 01:51:31;;;;;;;4.67;2.27;;;5.70;99.90;;;;;;5049027;28;20536;-88
2022/02/11 01:54:52;;;;;;;4.40;1.73;;;5.60;99.90;;;;;;5026225;28;20026;-89
2022/02/11 02:00:14;;;;;;;4.83;2.00;;;5.60;99.90;;;;;;5040036;28;20029;-88
2022/02/11 02:03:23;;;;;;;4.50;1.87;;;5.60;99.90;;;;;;5035465;28;20029;-90
2022/02/11 02:14:26;;;;;;;5.40;2.00;;;5.50;99.90;;;;;;5035346;28;20025;-89
2022/02/11 02:25:15;;;;;;;3.37;1.43;;;5.50;99.90;;;;;;5028766;28;20028;-88
2022/02/11 02:59:15;;;;;;;2.47;0.97;;;5.20;99.90;;;;;;5105401;22;20061;-91
2022/02/11 03:34:54;;;;;;;;;;;4.70;99.90;;;;;;5014146;28;20030;-89
2022/02/11 05:02:37;;;;;;;1.60;0.67;;;2.50;99.90;;;;;;5054366;28;20518;-88
2022/02/11 05:09:27;;;;;;;;;;;;;;;;;;;;;
2022/02/11 05:15:12;;;;;;;1.60;0.70;;;2.40;99.90;;;;;;4949743;28;20071;-87
2022/02/11 05:18:02;;;;;;;1.40;0.80;;;2.50;99.90;;;;;;5161607;22;20076;-85
2022/02/11 05:20:45;;;;;;;1.87;0.90;;;2.40;99.90;;;;;;5024653;28;20025;-88
2022/02/11 05:23:41;;;;;;;;;;;2.40;99.90;;;;;;5030180;28;20034;-89
2022/02/11 05:26:51;;;;;;;2.40;0.93;;;2.50;99.90;;;;;;5006251;28;19916;-89
2022/02/11 05:29:46;;;;;;;2.20;1.10;;;2.50;99.90;;;;;;4988977;28;20069;-88
2022/02/11 05:32:20;;;;;;;2.07;0.93;;;2.40;99.90;;;;;;4936253;29;20130;-89
2022/02/11 05:35:04;;;;;;;8.50;0.83;;;2.50;99.90;;;;;;4952481;29;20027;-89
2022/02/11 05:41:10;;;;;;;1.63;0.80;;;2.50;99.90;;;;;;5015019;28;20037;-89
2022/02/11 05:46:57;;;;;;;1.90;0.83;;;2.50;99.90;;;;;;5014886;28;20618;-89
2022/02/11 05:49:34;;;;;;;1.47;0.70;;;2.50;99.90;;;;;;5015479;28;20017;-88
2022/02/11 05:52:02;;;;;;;1.87;0.70;;;2.50;99.90;;;;;;5014221;28;20064;-89
2022/02/11 05:57:59;;;;;;;1.73;0.77;;;2.40;99.90;;;;;;5012353;28;20212;-88
2022/02/11 06:00:31;;;;;;;3.57;1.10;;;2.40;99.90;;;;;;5015179;28;20021;-88
2022/02/11 06:03:00;;;;;;;3.92;1.20;;;2.40;99.90;;;;;;5013608;28;20088;-88
2022/02/11 06:05:37;;;;;;;2.97;1.10;;;2.40;99.90;;;;;;5014511;28;20029;-88
2022/02/11 06:08:31;;;;;;;2.70;0.90;;;2.50;99.90;;;;;;5016366;28;20045;-88
2022/02/11 06:12:11;;;;;;;;;;;;;;;;;;;;;
2022/02/11 06:14:58;;;;;;;2.63;1.23;;;2.50;99.90;;;;;;5015478;28;20468;-88
2022/02/11 06:17:26;;;;;;;2.40;1.17;;;2.50;99.90;;;;;;5016604;28;20061;-88
2022/02/11 06:23:24;;;;;;;2.53;1.30;;;2.50;99.90;;;;;;4991694;28;20109;-88
2022/02/11 06:26:20;;;;;;;2.83;1.00;;;2.60;99.90;;;;;;4977184;28;20061;-87
2022/02/11 06:29:02;;;;;;;2.97;1.43;;;2.40;99.90;;;;;;4974320;28;20128;-89
2022/02/11 06:31:44;;;;;;;2.90;1.20;;;2.60;99.90;;;;;;4995406;28;20053;-87
2022/02/11 06:34:16;;;;;;;2.33;0.93;;;2.70;99.90;;;;;;5014997;28;20037;-89
2022/02/11 06:36:44;;;;;;;5.70;1.50;;;2.70;99.90;;;;;;5013480;28;20503;-88
2022/02/11 06:39:15;;;;;;;2.43;1.00;;;2.60;99.90;;;;;;5012407;28;20045;-88
2022/02/11 06:42:16;;;;;;;4.40;1.30;;;2.70;99.90;;;;;;5012133;28;20042;-88
2022/02/11 06:45:07;;;;;;;3.37;1.30;;;2.80;99.90;;;;;;5007106;28;20030;-89
2022/02/11 06:47:36;;;;;;;4.90;1.40;;;2.80;99.90;;;;;;5007396;28;20056;-88
2022/02/11 06:50:33;;;;;;;3.43;1.40;;;2.60;99.90;;;;;;5012535;28;20038;-89
2022/02/11 06:53:16;;;;;;;2.13;1.00;;;2.80;99.90;;;;;;5009805;28;20066;-88
2022/02/11 06:55:57;;;;;;;2.30;0.83;;;2.70;99.90;;;;;;5000819;28;20484;-88
2022/02/11 06:58:32;;;;;;;5.13;1.17;;;2.70;99.90;;;;;;5005442;28;20040;-89
2022/02/11 07:01:16;;;;;;;1.70;0.80;;;2.70;99.90;;;;;;5009260;28;20021;-88
2022/02/11 07:04:06;;;;;;;2.03;0.90;;;2.60;99.90;;;;;;5011184;28;20042;-89
2022/02/11 07:06:53;;;;;;;;;;;;;;;;;;;;;
2022/02/11 07:10:12;;;;;;;4.47;1.20;;;2.50;99.90;;;;;;4993664;28;20037;-90
2022/02/11 07:13:13;;;;;;;4.17;1.20;;;2.60;99.90;;;;;;5003946;28;20029;-90
2022/02/11 07:16:25;;;;;;;2.60;1.00;;;2.50;99.90;;;;;;5024789;28;20487;-89
2022/02/11 07:18:59;;;;;;;3.63;1.20;;;2.50;99.90;;;;;;5009369;28;20061;-89
2022/02/11 07:22:02;;;;;;;3.93;1.60;;;2.60;99.90;;;;;;5004536;28;20024;-90
2022/02/11 07:24:55;;;;;;;2.73;0.90;;;2.50;99.90;;;;;;5012936;28;20092;-91
2022/02/11 07:33:09;;;;;;;4.50;1.37;;;2.40;99.90;;;;;;5005262;28;20040;-90
2022/02/11 07:35:40;;;;;;;2.53;1.23;;;2.40;99.90;;;;;;5010060;28;20030;-89
2022/02/11 07:42:51;;;;;;;;;;;;;;;;;;;;;
2022/02/11 07:45:54;;;;;;;2.93;0.90;;;2.30;99.90;;;;;;4969428;28;20115;-90
2022/02/11 07:51:58;;;;;;;3.43;1.30;;;2.40;99.90;;;;;;4980256;28;20125;-91
2022/02/11 07:54:48;;;;;;;;;;;;;;;;;;;;;
2022/02/11 08:38:30;;;;;;;3.93;1.30;;;3.00;99.90;;;;;;5196354;22;20438;-87
2022/02/11 08:40:56;;;;;;;2.53;0.87;;;3.20;99.90;;;;;;4994410;28;20015;-87
2022/02/11 08:43:22;;;;;;;2.57;1.03;;;3.20;99.90;;;;;;4993178;28;20018;-88
2022/02/11 08:45:48;;;;;;;4.63;1.10;;;3.20;99.90;;;;;;5004165;28;20026;-88
2022/02/11 08:48:15;;;;;;;4.37;1.00;;;3.30;99.90;;;;;;5003753;28;20058;-87
2022/02/11 08:50:42;;;;;;;5.23;1.30;;;3.30;99.90;;;;;;5002483;28;20025;-88
2022/02/11 08:53:09;;;;;;;4.23;1.03;;;3.40;99.90;;;;;;5002803;28;20125;-88
2022/02/11 08:55:36;;;;;;;2.60;0.90;;;3.20;99.90;;;;;;5001714;28;20427;-88
2022/02/11 08:58:04;;;;;;;4.27;0.77;;;3.30;99.90;;;;;;5002671;28;20098;-88
2022/02/11 09:00:31;;;;;;;5.23;1.20;;;3.40;99.90;;;;;;5004448;28;20026;-89
2022/02/11 09:02:58;;;;;;;2.97;1.33;;;3.40;99.90;;;;;;5004527;28;20034;-87
2022/02/11 09:05:25;;;;;;;2.53;0.70;;;3.30;99.90;;;;;;5003747;28;20030;-88
2022/02/11 09:07:59;;;;;;;2.40;0.80;;;3.40;99.90;;;;;;5002841;28;20053;-88
2022/02/11 09:10:30;;;;;;;1.73;0.80;;;3.40;99.90;;;;;;5003496;28;20041;-88
2022/02/11 09:12:56;;;;;;;2.53;1.00;;;3.40;99.90;;;;;;4996810;28;20031;-88
2022/02/11 09:15:23;;;;;;;4.93;0.53;;;3.50;99.90;;;;;;4986862;28;20045;-88
2022/02/11 09:17:50;;;;;;;2.30;0.87;;;3.50;99.90;;;;;;5006099;28;20030;-88
2022/02/11 09:20:18;;;;;;;3.60;1.03;;;3.60;99.90;;;;;;5020906;28;20061;-89
2022/02/11 09:22:44;;;;;;;4.03;1.00;;;3.60;99.90;;;;;;5024964;28;20033;-88
2022/02/11 09:25:11;;;;;;;2.47;0.80;;;3.80;99.90;;;;;;5024380;28;20030;-89
2022/02/11 09:27:43;;;;;;;3.27;0.57;;;3.80;99.90;;;;;;5012998;28;20080;-88
2022/02/11 09:30:20;;;;;;;1.73;0.90;;;3.80;99.90;;;;;;5006108;28;20057;-88
2022/02/11 09:32:48;;;;;;;5.13;0.80;;;3.90;99.90;;;;;;5001366;28;20487;-88
2022/02/11 09:35:15;;;;;;;1.80;0.67;;;3.80;99.90;;;;;;5004945;28;20592;-88
2022/02/11 09:37:42;;;;;;;2.47;0.73;;;3.80;99.90;;;;;;5006505;28;20511;-88
2022/02/11 09:40:10;;;;;;;4.10;0.83;;;3.90;99.90;;;;;;5006306;28;20073;-88
2022/02/11 09:42:38;;;;;;;3.03;0.80;;;3.90;99.90;;;;;;5005352;28;20098;-88
2022/02/11 09:45:06;;;;;;;2.73;1.20;;;4.00;99.90;;;;;;5006338;28;20447;-89
2022/02/11 09:47:37;;;;;;;1.90;0.90;;;4.10;99.90;;;;;;5007269;28;20027;-89
2022/02/11 09:50:05;;;;;;;1.53;0.70;;;4.20;99.90;;;;;;5005269;28;20027;-87
2022/02/11 09:52:39;;;;;;;1.50;0.70;;;4.30;99.90;;;;;;4987834;28;20027;-87
2022/02/11 09:57:54;;;;;;;4.17;1.17;;;4.60;99.90;;;;;;4989113;28;20037;-88
2022/02/11 10:00:25;;;;;;;3.97;0.83;;;4.60;99.90;;;;;;5003145;28;20090;-89
2022/02/11 10:02:55;;;;;;;3.33;0.83;;;4.60;99.90;;;;;;5006581;28;20037;-88
2022/02/11 10:05:33;;;;;;;2.27;0.60;;;4.70;99.90;;;;;;5006555;28;20058;-89
2022/02/11 10:08:01;;;;;;;3.70;0.70;;;4.70;99.90;;;;;;5013826;28;20026;-88
2022/02/11 10:13:31;;;;;;;1.87;0.57;;;4.40;99.90;;;;;;4988504;28;20045;-89
2022/02/11 10:16:16;;;;;;;2.10;0.90;;;4.30;99.90;;;;;;4989664;28;20042;-88
2022/02/11 10:18:48;;;;;;;3.33;0.60;;;4.30;99.90;;;;;;4985398;28;20374;-88
2022/02/11 10:21:23;;;;;;;1.50;0.63;;;4.40;99.90;;;;;;4987938;28;20034;-88
2022/02/11 10:23:51;;;;;;;6.43;0.80;;;4.50;99.90;;;;;;5003889;28;20026;-86
2022/02/11 10:26:19;;;;;;;2.60;0.60;;;4.50;99.90;;;;;;5018262;28;20057;-88
2022/02/11 10:28:47;;;;;;;6.13;1.00;;;4.50;99.90;;;;;;4985722;28;20031;-88
2022/02/11 10:31:34;;;;;;;2.63;0.90;;;4.40;99.90;;;;;;4988307;28;20042;-86
2022/02/11 10:34:05;;;;;;;2.80;0.87;;;4.40;99.90;;;;;;4984626;28;20043;-86
2022/02/11 10:36:47;;;;;;;2.10;0.87;;;4.50;99.90;;;;;;4998434;28;20064;-88
2022/02/11 10:39:25;;;;;;;2.97;0.70;;;4.50;99.90;;;;;;4993630;28;20034;-88
2022/02/11 10:41:55;;;;;;;3.23;1.00;;;4.40;99.90;;;;;;4994291;28;20058;-88
2022/02/11 10:44:23;;;;;;;3.63;0.70;;;4.40;99.90;;;;;;4988219;28;20066;-88
2022/02/11 10:46:56;;;;;;;7.23;0.90;;;4.50;99.90;;;;;;4997011;28;20026;-89
2022/02/11 10:49:36;;;;;;;1.73;0.70;;;4.70;99.90;;;;;;5017934;28;20074;-89
2022/02/11 10:52:19;;;;;;;1.97;0.90;;;4.80;99.90;;;;;;4985473;28;20026;-89
2022/02/11 10:54:56;;;;;;;4.70;0.73;;;4.80;99.90;;;;;;5002118;28;20038;-88
2022/02/11 10:57:27;;;;;;;3.53;0.70;;;4.80;99.90;;;;;;4985855;28;20046;-89
2022/02/11 10:59:54;;;;;;;2.10;0.88;;;4.80;99.90;;;;;;4995658;28;20029;-88
2022/02/11 11:02:22;;;;;;;1.83;0.60;;;5.00;99.90;;;;;;5008220;28;20026;-90
2022/02/11 11:04:49;;;;;;;1.43;0.50;;;5.00;99.90;;;;;;5007062;28;20026;-90
2022/02/11 11:07:22;;;;;;;1.80;0.73;;;5.10;99.90;;;;;;5000367;28;20026;-88
2022/02/11 11:09:49;;;;;;;2.00;1.00;;;5.10;99.90;;;;;;4984415;28;20054;-89
2022/02/11 11:12:18;;;;;;;2.80;0.60;;;5.20;99.90;;;;;;4986661;28;20027;-89
2022/02/11 11:14:47;;;;;;;1.70;0.50;;;5.30;99.90;;;;;;5004802;28;20034;-88
2022/02/11 11:17:16;;;;;;;2.30;0.70;;;5.40;99.90;;;;;;5003346;28;20049;-89
2022/02/11 11:19:42;;;;;;;1.47;0.57;;;5.20;99.90;;;;;;5004843;28;20026;-88
2022/02/11 11:22:14;;;;;;;5.33;0.93;;;5.30;99.90;;;;;;5003782;28;20054;-89
2022/02/11 11:24:43;;;;;;;1.27;0.43;;;5.20;99.90;;;;;;5000368;28;20037;-86
2022/02/11 11:27:08;;;;;;;2.87;0.63;;;5.30;99.90;;;;;;5014558;28;20026;-89
2022/02/11 11:29:34;;;;;;;5.13;0.50;;;5.30;99.90;;;;;;5005312;28;20011;-89
2022/02/11 11:32:04;;;;;;;1.47;0.63;;;5.20;99.90;;;;;;5001333;28;20090;-91
2022/02/11 11:34:38;;;;;;;2.47;0.70;;;5.20;99.90;;;;;;5002842;28;20030;-91
2022/02/11 11:37:11;;;;;;;1.30;0.47;;;5.20;99.90;;;;;;5002119;28;20078;-91
2022/02/11 11:39:40;;;;;;;1.33;0.50;;;5.20;99.90;;;;;;5003641;28;20050;-91
2022/02/11 11:42:29;;;;;;;3.30;0.97;;;5.10;99.90;;;;;;4987809;28;20039;-91
2022/02/11 11:45:03;;;;;;;5.77;0.83;;;5.20;99.90;;;;;;5001192;28;20037;-92
2022/02/11 11:47:41;;;;;;;2.30;0.60;;;5.40;99.90;;;;;;5003441;28;20029;-91
2022/02/11 11:50:25;;;;;;;4.00;0.87;;;5.50;99.90;;;;;;5003656;28;20011;-91
2022/02/11 11:52:56;;;;;;;2.53;0.60;;;5.60;99.90;;;;;;5005560;28;20049;-90
2022/02/11 11:55:36;;;;;;;1.40;0.50;;;5.50;99.90;;;;;;5000120;28;20035;-90
2022/02/11 11:58:09;;;;;;;2.40;0.87;;;5.50;99.90;;;;;;5049401;23;20077;-91
2022/02/11 12:00:41;;;;;;;2.37;0.77;;;5.40;99.90;;;;;;5027147;28;20455;-90
2022/02/11 12:03:13;;;;;;;2.45;0.70;;;5.40;99.90;;;;;;5027778;28;20036;-90
2022/02/11 12:06:00;;;;;;;2.93;0.70;;;5.50;99.90;;;;;;5014980;28;20025;-91
2022/02/11 12:08:40;;;;;;;1.70;0.50;;;5.50;99.90;;;;;;5038731;28;20036;-88
2022/02/11 12:11:18;;;;;;;;;;;;;;;;;;;;;
2022/02/11 12:13:58;;;;;;;2.57;0.40;;;5.70;99.90;;;;;;5056855;28;20024;-91
2022/02/11 12:16:46;;;;;;;4.33;0.60;;;5.70;99.90;;;;;;5049886;28;20025;-93
2022/02/11 12:19:25;;;;;;;1.43;0.40;;;5.60;99.90;;;;;;5074728;28;20053;-93
2022/02/11 12:21:58;;;;;;;2.17;0.40;;;5.60;99.90;;;;;;5043726;28;20336;-92
2022/02/11 12:27:33;;;;;;;1.13;0.40;;;5.60;99.90;;;;;;5038413;28;20083;-91
2022/02/11 12:30:08;;;;;;;4.13;0.67;;;5.50;99.90;;;;;;5045696;28;20033;-91
2022/02/11 12:32:43;;;;;;;1.77;0.40;;;5.40;99.90;;;;;;5074524;28;20022;-92
2022/02/11 12:35:21;;;;;;;3.07;0.43;;;5.60;99.90;;;;;;5042458;28;20028;-90
2022/02/11 12:37:51;;;;;;;3.17;0.37;;;5.70;99.90;;;;;;5044695;28;20017;-91
2022/02/11 12:40:27;;;;;;;2.77;0.60;;;5.80;99.90;;;;;;5077914;28;20141;-90
2022/02/11 12:43:02;;;;;;;1.07;0.30;;;5.90;99.90;;;;;;5042446;28;20045;-90
2022/02/11 12:45:48;;;;;;;1.47;0.27;;;5.90;99.90;;;;;;5043769;28;20040;-90
2022/02/11 12:48:29;;;;;;;3.03;0.40;;;5.90;99.90;;;;;;5043665;28;20029;-90
2022/02/11 12:51:07;;;;;;;2.97;0.40;;;6.00;99.90;;;;;;5046470;28;20116;-90
2022/02/11 12:54:01;;;;;;;2.47;0.33;;;6.00;99.90;;;;;;5056446;28;20034;-90
2022/02/11 12:56:41;;;;;;;3.17;0.40;;;6.10;99.90;;;;;;5059288;28;20025;-90
2022/02/11 12:59:30;;;;;;;2.03;0.40;;;5.90;99.90;;;;;;5045179;28;20037;-90
2022/02/11 13:02:01;;;;;;;2.07;0.50;;;5.80;99.90;;;;;;5079320;28;20029;-90
2022/02/11 13:04:38;;;;;;;1.10;0.20;;;5.80;99.90;;;;;;5046650;28;20070;-91
2022/02/11 13:07:10;;;;;;;2.40;0.40;;;5.70;99.90;;;;;;5046470;28;20096;-90
2022/02/11 13:09:39;;;;;;;;;;;5.60;99.90;;;;;;5047224;28;20022;-90
2022/02/11 13:12:15;;;;;;;1.00;0.40;;;5.60;99.90;;;;;;5044421;28;19905;-90
2022/02/11 13:14:46;;;;;;;2.33;0.50;;;5.50;99.90;;;;;;5069340;28;20549;-90
2022/02/11 13:17:25;;;;;;;3.60;0.57;;;5.50;99.90;;;;;;5050757;28;20033;-91
2022/02/11 13:19:51;;;;;;;2.30;0.50;;;5.50;99.90;;;;;;5048380;28;20044;-90
2022/02/11 13:22:18;;;;;;;1.70;0.50;;;5.50;99.90;;;;;;5032537;28;20036;-91
2022/02/11 13:24:52;;;;;;;3.43;0.70;;;5.50;99.90;;;;;;5049305;28;20021;-89
2022/02/11 13:27:49;;;;;;;2.87;0.60;;;5.60;99.90;;;;;;5048715;28;20108;-90
2022/02/11 13:30:30;;;;;;;2.13;0.50;;;5.60;99.90;;;;;;5030035;28;20025;-90
2022/02/11 13:33:16;;;;;;;3.13;0.50;;;5.50;99.90;;;;;;5047018;28;20116;-89
2022/02/11 13:35:42;;;;;;;1.80;0.43;;;5.60;99.90;;;;;;5048662;28;20033;-90
2022/02/11 13:38:08;;;;;;;1.00;0.50;;;5.60;99.90;;;;;;5047684;28;20085;-89
2022/02/11 13:40:34;;;;;;;1.67;0.60;;;5.70;99.90;;;;;;5039159;28;20061;-89
2022/02/11 13:43:03;;;;;;;1.03;0.37;;;5.90;99.90;;;;;;5026521;28;20488;-89
2022/02/11 13:45:49;;;;;;;1.60;0.40;;;6.00;99.90;;;;;;5030840;28;20025;-89
2022/02/11 13:48:23;;;;;;;5.93;0.60;;;6.00;99.90;;;;;;5080161;28;20029;-89
2022/02/11 13:51:05;;;;;;;1.70;0.53;;;6.20;99.90;;;;;;5048134;28;20179;-89
2022/02/11 13:53:55;;;;;;;1.17;0.60;;;6.40;99.90;;;;;;5047036;28;20124;-89
2022/02/11 13:56:36;;;;;;;2.17;0.40;;;6.60;99.90;;;;;;5048954;28;20056;-89
2022/02/11 13:59:06;;;;;;;4.03;0.40;;;6.70;99.90;;;;;;5038771;28;20029;-89
2022/02/11 14:01:34;;;;;;;1.70;0.43;;;6.80;99.90;;;;;;5055209;28;20034;-89
2022/02/11 14:04:04;;;;;;;2.47;0.60;;;6.60;99.90;;;;;;5047653;28;20101;-89
2022/02/11 14:06:39;;;;;;;0.80;0.30;;;6.60;99.90;;;;;;5047338;28;20018;-90
2022/02/11 14:09:25;;;;;;;1.63;1.00;;;6.60;99.90;;;;;;5046963;28;20436;-89
2022/02/11 14:11:54;;;;;;;1.90;0.40;;;6.50;99.90;;;;;;5048657;28;20025;-89
2022/02/11 14:14:55;;;;;;;1.63;0.30;;;6.30;99.90;;;;;;5043003;28;20018;-89
2022/02/11 14:17:23;;;;;;;1.13;0.50;;;6.10;99.90;;;;;;5029065;28;20041;-89
2022/02/11 14:19:51;;;;;;;3.33;0.83;;;5.90;99.90;;;;;;5053941;28;20037;-89
2022/02/11 14:22:18;;;;;;;1.40;0.50;;;5.80;99.90;;;;;;5048472;28;20089;-89
2022/02/11 14:24:44;;;;;;;2.93;0.57;;;6.20;99.90;;;;;;5046494;28;20040;-89
2022/02/11 14:27:19;;;;;;;1.47;0.40;;;6.30;99.90;;;;;;5046691;28;20029;-90
2022/02/11 14:29:49;;;;;;;0.93;0.40;;;6.30;99.90;;;;;;5055057;28;20026;-90
2022/02/11 14:32:18;;;;;;;1.83;0.60;;;6.50;99.90;;;;;;5078759;28;20021;-89
2022/02/11 14:34:49;;;;;;;1.97;0.40;;;6.60;99.90;;;;;;5038695;28;20045;-90
2022/02/11 14:37:17;;;;;;;1.77;0.50;;;7.10;99.90;;;;;;5082897;28;20029;-89
2022/02/11 14:39:43;;;;;;;1.63;0.50;;;7.30;99.90;;;;;;5021937;23;20041;-86
2022/02/11 14:42:09;;;;;;;2.00;0.53;;;7.70;99.90;;;;;;4986793;28;20082;-86
2022/02/11 14:44:37;;;;;;;1.30;0.40;;;8.10;99.90;;;;;;4992209;28;20027;-86
2022/02/11 14:47:05;;;;;;;0.93;0.40;;;8.50;99.90;;;;;;4978399;28;20022;-86
2022/02/11 14:49:30;;;;;;;1.43;0.40;;;8.90;99.90;;;;;;4975680;28;20026;-86
2022/02/11 14:51:59;;;;;;;1.60;0.50;;;8.70;99.90;;;;;;4971594;28;20036;-87
2022/02/11 14:54:25;;;;;;;2.90;0.50;;;8.80;99.90;;;;;;4972767;28;20411;-87
2022/02/11 14:56:54;;;;;;;0.77;0.30;;;9.00;99.80;;;;;;4974550;28;20030;-86
2022/02/11 14:59:20;;;;;;;1.70;0.60;;;8.60;99.30;;;;;;4973871;28;20026;-86
2022/02/11 15:01:47;;;;;;;2.80;0.50;;;8.00;99.90;;;;;;4974386;28;20034;-88
2022/02/11 15:04:13;;;;;;;1.60;0.50;;;7.50;99.90;;;;;;4980026;28;20030;-88
2022/02/11 15:06:39;;;;;;;0.83;0.33;;;7.30;99.90;;;;;;4972932;28;20105;-88
2022/02/11 15:09:06;;;;;;;1.37;0.50;;;6.90;99.90;;;;;;4977496;28;20060;-87
2022/02/11 15:11:33;;;;;;;2.47;0.50;;;6.60;99.90;;;;;;4976333;28;20042;-88
2022/02/11 15:13:58;;;;;;;1.30;0.50;;;6.50;99.90;;;;;;4977696;28;20022;-87
2022/02/11 15:16:24;;;;;;;1.93;0.63;;;6.30;99.90;;;;;;4968969;28;20027;-87
2022/02/11 15:18:50;;;;;;;1.73;0.40;;;6.20;99.90;;;;;;4974549;28;20029;-87
2022/02/11 15:21:18;;;;;;;1.40;0.70;;;6.10;99.90;;;;;;4974702;28;20018;-87
2022/02/11 15:23:46;;;;;;;2.00;0.40;;;6.00;99.90;;;;;;4991162;28;20088;-87
2022/02/11 15:26:12;;;;;;;2.20;0.40;;;5.80;99.90;;;;;;4972932;28;20026;-88
2022/02/11 15:28:39;;;;;;;1.40;0.40;;;5.70;99.90;;;;;;4975339;28;20126;-86
2022/02/11 15:31:11;;;;;;;1.43;0.40;;;5.70;99.90;;;;;;4974976;28;20030;-87
2022/02/11 15:33:39;;;;;;;1.98;0.52;;;5.60;99.90;;;;;;4971325;28;20023;-88
2022/02/11 15:36:05;;;;;;;1.83;0.57;;;5.60;99.90;;;;;;4973834;28;20030;-88
2022/02/11 15:38:31;;;;;;;3.67;0.60;;;5.60;99.90;;;;;;4969582;28;20034;-88
2022/02/11 15:40:57;;;;;;;2.00;0.50;;;5.50;99.90;;;;;;4992179;28;20022;-88
2022/02/11 15:43:25;;;;;;;2.30;0.60;;;5.30;99.90;;;;;;4971328;28;20027;-87
2022/02/11 15:45:52;;;;;;;1.67;0.53;;;5.30;99.90;;;;;;4991640;28;20049;-87
2022/02/11 15:48:18;;;;;;;3.87;0.50;;;5.20;99.90;;;;;;4973829;28;20023;-87
2022/02/11 15:50:44;;;;;;;3.77;1.03;;;5.20;99.90;;;;;;4974347;28;20392;-87
2022/02/11 15:53:11;;;;;;;2.47;0.60;;;5.30;99.90;;;;;;4969823;28;20041;-88
2022/02/11 15:55:37;;;;;;;3.50;1.00;;;5.30;99.90;;;;;;4973924;28;20040;-86
2022/02/11 15:58:03;;;;;;;2.40;0.77;;;5.30;99.90;;;;;;4974599;28;20023;-87
2022/02/11 16:00:30;;;;;;;4.93;0.67;;;5.30;99.90;;;;;;4973857;28;20081;-88
2022/02/11 16:02:55;;;;;;;2.20;0.50;;;5.20;99.90;;;;;;4972487;28;20030;-87
2022/02/11 16:05:23;;;;;;;1.17;0.53;;;5.10;99.90;;;;;;4968475;28;20392;-86
2022/02/11 16:07:54;;;;;;;1.90;0.70;;;5.10;99.90;;;;;;4973991;28;20085;-88
2022/02/11 16:10:25;;;;;;;3.40;0.30;;;5.00;99.90;;;;;;4971777;28;20436;-87
2022/02/11 16:12:54;;;;;;;1.30;0.50;;;5.00;99.90;;;;;;4969216;28;20034;-87
2022/02/11 16:15:21;;;;;;;1.30;0.70;;;4.90;99.90;;;;;;4972180;28;20117;-88
2022/02/11 16:18:05;;;;;;;2.87;0.87;;;4.90;99.90;;;;;;4973382;28;20022;-87
2022/02/11 16:20:37;;;;;;;3.60;1.17;;;4.90;99.90;;;;;;4989661;28;20015;-88
2022/02/11 16:23:06;;;;;;;7.15;2.05;;;4.80;99.90;;;;;;4973186;28;20026;-88
2022/02/11 16:25:32;;;;;;;6.03;1.30;;;4.80;99.90;;;;;;4972114;28;20034;-86
2022/02/11 16:27:58;;;;;;;3.00;1.10;;;4.80;99.90;;;;;;4973415;28;20022;-87
2022/02/11 16:30:25;;;;;;;2.70;1.40;;;4.70;99.90;;;;;;4973499;28;20015;-87
2022/02/11 16:32:51;;;;;;;2.80;1.10;;;4.70;99.90;;;;;;4972759;28;20033;-87
2022/02/11 16:35:18;;;;;;;7.67;1.20;;;4.70;99.90;;;;;;4972152;28;20048;-88
2022/02/11 16:37:44;;;;;;;2.00;0.90;;;4.70;99.90;;;;;;4973278;28;20470;-88
2022/02/11 16:40:11;;;;;;;3.57;0.80;;;4.70;99.90;;;;;;4972809;28;20154;-86
2022/02/11 16:42:37;;;;;;;3.53;1.00;;;4.70;99.90;;;;;;4985077;28;20099;-88
2022/02/11 16:45:08;;;;;;;6.27;2.40;;;4.70;99.90;;;;;;4972727;28;20019;-87
2022/02/11 16:47:36;;;;;;;7.80;1.83;;;4.60;99.90;;;;;;4968190;28;20026;-87
2022/02/11 16:50:05;;;;;;;4.23;1.47;;;4.70;99.90;;;;;;4973475;28;20101;-87
2022/02/11 16:52:33;;;;;;;5.30;1.37;;;4.70;99.90;;;;;;4973074;28;20037;-87
2022/02/11 16:55:06;;;;;;;3.83;1.53;;;4.70;99.90;;;;;;4972770;28;20018;-87
2022/02/11 16:57:33;;;;;;;5.87;0.87;;;4.70;99.90;;;;;;4973301;28;20042;-87
2022/02/11 16:59:58;;;;;;;3.13;0.87;;;4.50;99.90;;;;;;4973034;28;20077;-87
2022/02/11 17:02:27;;;;;;;3.17;0.80;;;4.30;99.90;;;;;;4972846;28;20034;-87
2022/02/11 17:04:53;;;;;;;3.30;0.80;;;4.20;99.90;;;;;;4972605;28;20037;-87
2022/02/11 17:07:19;;;;;;;4.33;1.00;;;4.00;99.90;;;;;;4973698;28;20120;-87
2022/02/11 17:09:46;;;;;;;4.90;1.47;;;4.00;99.90;;;;;;4973556;28;20109;-87
2022/02/11 17:12:15;;;;;;;7.03;1.57;;;3.80;99.90;;;;;;4974034;28;20514;-87
2022/02/11 17:14:40;;;;;;;4.47;0.90;;;3.80;99.90;;;;;;4976007;28;20165;-87
2022/02/11 17:17:06;;;;;;;4.93;1.30;;;3.80;99.90;;;;;;4974141;28;20484;-87
2022/02/11 17:19:32;;;;;;;7.47;1.87;;;3.80;99.90;;;;;;4971259;28;20058;-86
2022/02/11 17:22:00;;;;;;;5.07;0.87;;;3.80;99.90;;;;;;4973285;28;20031;-87
2022/02/11 17:24:25;;;;;;;10.87;2.57;;;3.70;99.90;;;;;;4971319;28;20023;-87
2022/02/11 17:26:51;;;;;;;5.93;2.00;;;3.70;99.90;;;;;;4989015;28;20033;-86
2022/02/11 17:29:17;;;;;;;10.93;3.63;;;3.70;99.90;;;;;;4973426;28;20057;-87
2022/02/11 17:31:43;;;;;;;19.23;6.70;;;3.70;99.90;;;;;;4973187;28;20128;-86
2022/02/11 17:34:09;;;;;;;12.90;4.33;;;3.70;99.90;;;;;;4973419;28;20030;-87
2022/02/11 17:36:35;;;;;;;15.27;5.73;;;3.70;99.90;;;;;;4973793;28;20841;-86
2022/02/11 17:39:07;;;;;;;11.83;3.83;;;3.70;99.90;;;;;;4977559;28;20109;-87
2022/02/11 17:41:33;;;;;;;5.93;2.40;;;3.70;99.90;;;;;;4973246;28;20019;-87
2022/02/11 17:44:00;;;;;;;6.17;2.33;;;3.60;99.90;;;;;;4969254;28;20038;-87
2022/02/11 17:46:26;;;;;;;5.77;1.43;;;3.60;99.90;;;;;;4991952;28;20042;-86
2022/02/11 17:48:53;;;;;;;4.37;1.60;;;3.60;99.90;;;;;;4986903;28;20122;-87
2022/02/11 17:51:19;;;;;;;3.43;1.17;;;3.60;99.90;;;;;;4972034;28;20031;-87
2022/02/11 17:53:45;;;;;;;2.63;1.13;;;3.50;99.90;;;;;;4974670;28;20022;-87
2022/02/11 17:56:11;;;;;;;7.57;1.60;;;3.50;99.90;;;;;;4976266;28;20074;-87
2022/02/11 17:58:37;;;;;;;2.97;1.10;;;3.60;99.90;;;;;;4977061;28;20046;-87
2022/02/11 18:01:02;;;;;;;4.27;1.53;;;3.60;99.90;;;;;;4975902;28;20029;-87
2022/02/11 18:03:31;;;;;;;9.60;1.90;;;3.60;99.90;;;;;;4971175;28;20426;-87
2022/02/11 18:05:57;;;;;;;6.57;1.60;;;3.60;99.90;;;;;;4973494;28;20026;-87
2022/02/11 18:08:23;;;;;;;7.57;1.97;;;3.60;99.90;;;;;;4976964;28;20507;-87
2022/02/11 18:10:50;;;;;;;6.53;1.80;;;3.50;99.90;;;;;;4976964;28;20018;-88
2022/02/11 18:13:19;;;;;;;4.87;1.77;;;3.50;99.90;;;;;;4994804;28;20033;-87
2022/02/11 18:15:45;;;;;;;12.83;4.13;;;3.40;99.90;;;;;;4977029;28;20153;-88
2022/02/11 18:18:11;;;;;;;11.83;4.63;;;3.40;99.90;;;;;;4976005;28;20060;-88
2022/02/11 18:20:38;;;;;;;14.87;4.70;;;3.40;99.90;;;;;;4977200;28;20480;-87
2022/02/11 18:23:04;;;;;;;21.83;7.60;;;3.40;99.90;;;;;;4976680;28;20077;-87
2022/02/11 18:25:30;;;;;;;14.73;6.33;;;3.40;99.90;;;;;;4993965;28;20022;-87
2022/02/11 18:28:01;;;;;;;15.13;5.60;;;3.40;99.90;;;;;;4976276;28;20492;-87
2022/02/11 18:30:28;;;;;;;10.17;3.53;;;3.30;99.90;;;;;;4990785;28;20322;-87
2022/02/11 18:32:54;;;;;;;18.37;6.57;;;3.30;99.90;;;;;;4969157;28;20492;-87
2022/02/11 18:35:19;;;;;;;29.93;9.63;;;3.20;99.90;;;;;;4975278;28;20042;-88
2022/02/11 18:37:45;;;;;;;28.40;9.13;;;3.20;99.90;;;;;;4975479;28;20019;-88
2022/02/11 18:40:14;;;;;;;11.73;4.33;;;3.20;99.90;;;;;;4975508;28;20531;-88
2022/02/11 18:42:40;;;;;;;17.77;4.30;;;3.20;99.90;;;;;;4976439;28;20029;-88
2022/02/11 18:45:08;;;;;;;36.53;10.20;;;3.20;99.90;;;;;;4975146;28;20022;-87